sensor_id;sensor_type;location;lat;lon;timestamp;temperature;humidity
40374;DHT22;26079;45.958;12.492;2023-05-16T00:00:23;15.00;99.90
40374;DHT22;26079;45.958;12.492;2023-05-16T00:02:51;14.90;99.90
40374;DHT22;26079;45.958;12.492;2023-05-16T00:05:18;14.90;99.90
40374;DHT22;26079;45.958;12.492;2023-05-16T00:07:45;14.80;99.90
40374;DHT22;26079;45.958;12.492;2023-05-16T00:10:12;14.90;99.90
40374;DHT22;26079;45.958;12.492;2023-05-16T00:12:38;14.90;99.80
40374;DHT22;26079;45.958;12.492;2023-05-16T00:15:08;14.90;99.60
40374;DHT22;26079;45.958;12.492;2023-05-16T00:17:37;14.90;97.90
40374;DHT22;26079;45.958;12.492;2023-05-16T00:20:03;15.00;97.60
40374;DHT22;26079;45.958;12.492;2023-05-16T00:22:36;15.10;96.10
40374;DHT22;26079;45.958;12.492;2023-05-16T00:25:02;15.20;96.50
40374;DHT22;26079;45.958;12.492;2023-05-16T00:27:28;15.20;98.30
40374;DHT22;26079;45.958;12.492;2023-05-16T00:29:54;15.10;98.30
40374;DHT22;26079;45.958;12.492;2023-05-16T00:32:20;15.10;99.20
40374;DHT22;26079;45.958;12.492;2023-05-16T00:34:46;15.00;99.90
40374;DHT22;26079;45.958;12.492;2023-05-16T00:37:12;14.90;99.90
40374;DHT22;26079;45.958;12.492;2023-05-16T00:39:38;14.90;99.90
40374;DHT22;26079;45.958;12.492;2023-05-16T00:42:04;14.80;99.90
40374;DHT22;26079;45.958;12.492;2023-05-16T00:44:29;14.80;99.90
40374;DHT22;26079;45.958;12.492;2023-05-16T00:46:56;14.70;99.90
40374;DHT22;26079;45.958;12.492;2023-05-16T00:49:22;14.50;99.60
40374;DHT22;26079;45.958;12.492;2023-05-16T00:51:48;14.30;99.90
40374;DHT22;26079;45.958;12.492;2023-05-16T00:54:14;14.30;99.70
40374;DHT22;26079;45.958;12.492;2023-05-16T00:56:40;14.30;98.60
40374;DHT22;26079;45.958;12.492;2023-05-16T00:59:06;14.40;96.90
40374;DHT22;26079;45.958;12.492;2023-05-16T01:01:31;14.50;95.50
40374;DHT22;26079;45.958;12.492;2023-05-16T01:03:59;14.60;96.20
40374;DHT22;26079;45.958;12.492;2023-05-16T01:06:25;14.70;93.40
40374;DHT22;26079;45.958;12.492;2023-05-16T01:08:51;14.80;93.20
40374;DHT22;26079;45.958;12.492;2023-05-16T01:11:49;14.90;91.70
40374;DHT22;26079;45.958;12.492;2023-05-16T01:17:28;15.10;90.40
40374;DHT22;26079;45.958;12.492;2023-05-16T01:27:51;15.60;88.30
40374;DHT22;26079;45.958;12.492;2023-05-16T01:30:18;15.60;87.20
40374;DHT22;26079;45.958;12.492;2023-05-16T01:32:45;15.70;86.60
40374;DHT22;26079;45.958;12.492;2023-05-16T01:35:13;15.80;85.90
40374;DHT22;26079;45.958;12.492;2023-05-16T01:37:59;15.90;85.50
40374;DHT22;26079;45.958;12.492;2023-05-16T01:43:24;16.00;84.60
40374;DHT22;26079;45.958;12.492;2023-05-16T01:46:02;16.10;84.50
40374;DHT22;26079;45.958;12.492;2023-05-16T01:48:34;16.10;85.10
40374;DHT22;26079;45.958;12.492;2023-05-16T01:51:02;16.10;84.10
40374;DHT22;26079;45.958;12.492;2023-05-16T01:53:34;16.20;83.80
40374;DHT22;26079;45.958;12.492;2023-05-16T01:56:01;16.20;84.40
40374;DHT22;26079;45.958;12.492;2023-05-16T01:58:29;16.20;84.50
40374;DHT22;26079;45.958;12.492;2023-05-16T02:01:04;16.20;84.30
40374;DHT22;26079;45.958;12.492;2023-05-16T02:03:30;16.20;85.60
40374;DHT22;26079;45.958;12.492;2023-05-16T02:05:56;16.10;85.70
40374;DHT22;26079;45.958;12.492;2023-05-16T02:08:23;15.90;87.60
40374;DHT22;26079;45.958;12.492;2023-05-16T02:10:51;15.60;89.60
40374;DHT22;26079;45.958;12.492;2023-05-16T02:13:16;15.50;89.10
40374;DHT22;26079;45.958;12.492;2023-05-16T02:15:42;15.40;91.20
40374;DHT22;26079;45.958;12.492;2023-05-16T02:18:08;15.20;93.30
40374;DHT22;26079;45.958;12.492;2023-05-16T02:20:34;15.10;95.40
40374;DHT22;26079;45.958;12.492;2023-05-16T02:22:59;14.90;97.10
40374;DHT22;26079;45.958;12.492;2023-05-16T02:25:25;14.70;96.80
40374;DHT22;26079;45.958;12.492;2023-05-16T02:27:51;14.60;97.70
40374;DHT22;26079;45.958;12.492;2023-05-16T02:30:16;14.50;98.60
40374;DHT22;26079;45.958;12.492;2023-05-16T02:32:42;14.50;99.00
40374;DHT22;26079;45.958;12.492;2023-05-16T02:35:09;14.50;96.00
40374;DHT22;26079;45.958;12.492;2023-05-16T02:37:36;14.50;97.80
40374;DHT22;26079;45.958;12.492;2023-05-16T02:40:02;14.50;99.90
40374;DHT22;26079;45.958;12.492;2023-05-16T02:42:31;14.50;98.00
40374;DHT22;26079;45.958;12.492;2023-05-16T02:44:57;14.50;99.00
40374;DHT22;26079;45.958;12.492;2023-05-16T02:47:23;14.40;97.40
40374;DHT22;26079;45.958;12.492;2023-05-16T02:49:48;14.40;99.90
40374;DHT22;26079;45.958;12.492;2023-05-16T02:52:14;14.40;96.20
40374;DHT22;26079;45.958;12.492;2023-05-16T02:54:39;14.40;97.30
40374;DHT22;26079;45.958;12.492;2023-05-16T02:57:05;14.40;99.90
40374;DHT22;26079;45.958;12.492;2023-05-16T02:59:31;14.40;99.90
40374;DHT22;26079;45.958;12.492;2023-05-16T03:01:56;14.40;99.90
40374;DHT22;26079;45.958;12.492;2023-05-16T03:04:22;14.40;99.90
40374;DHT22;26079;45.958;12.492;2023-05-16T03:06:48;14.30;99.90
40374;DHT22;26079;45.958;12.492;2023-05-16T03:09:15;14.30;99.90
40374;DHT22;26079;45.958;12.492;2023-05-16T03:11:41;14.30;99.90
40374;DHT22;26079;45.958;12.492;2023-05-16T03:14:07;14.30;99.90
40374;DHT22;26079;45.958;12.492;2023-05-16T03:16:32;14.20;99.90
40374;DHT22;26079;45.958;12.492;2023-05-16T03:18:58;14.20;99.90
40374;DHT22;26079;45.958;12.492;2023-05-16T03:21:24;14.20;99.90
40374;DHT22;26079;45.958;12.492;2023-05-16T03:23:50;14.20;99.90
40374;DHT22;26079;45.958;12.492;2023-05-16T03:26:15;14.20;99.90
40374;DHT22;26079;45.958;12.492;2023-05-16T03:28:41;14.20;99.90
40374;DHT22;26079;45.958;12.492;2023-05-16T03:31:07;14.10;99.90
40374;DHT22;26079;45.958;12.492;2023-05-16T03:33:32;14.20;99.90
40374;DHT22;26079;45.958;12.492;2023-05-16T03:35:58;14.20;99.90
40374;DHT22;26079;45.958;12.492;2023-05-16T03:38:24;14.20;99.90
40374;DHT22;26079;45.958;12.492;2023-05-16T03:40:49;14.20;99.90
40374;DHT22;26079;45.958;12.492;2023-05-16T03:43:15;14.20;99.90
40374;DHT22;26079;45.958;12.492;2023-05-16T03:45:41;14.20;99.90
40374;DHT22;26079;45.958;12.492;2023-05-16T03:48:08;14.30;99.90
40374;DHT22;26079;45.958;12.492;2023-05-16T03:50:34;14.30;99.90
40374;DHT22;26079;45.958;12.492;2023-05-16T03:53:01;14.30;99.90
40374;DHT22;26079;45.958;12.492;2023-05-16T03:55:27;14.30;99.90
40374;DHT22;26079;45.958;12.492;2023-05-16T03:57:55;14.30;99.90
40374;DHT22;26079;45.958;12.492;2023-05-16T04:00:21;14.30;99.90
40374;DHT22;26079;45.958;12.492;2023-05-16T04:02:46;14.30;99.90
40374;DHT22;26079;45.958;12.492;2023-05-16T04:05:12;14.30;99.90
40374;DHT22;26079;45.958;12.492;2023-05-16T04:07:39;14.30;99.90
40374;DHT22;26079;45.958;12.492;2023-05-16T04:10:05;14.20;99.90
40374;DHT22;26079;45.958;12.492;2023-05-16T04:12:31;14.30;99.90
40374;DHT22;26079;45.958;12.492;2023-05-16T04:14:56;14.30;99.90
40374;DHT22;26079;45.958;12.492;2023-05-16T04:17:22;14.30;99.90
40374;DHT22;26079;45.958;12.492;2023-05-16T04:19:48;14.40;99.90
40374;DHT22;26079;45.958;12.492;2023-05-16T04:22:13;14.40;99.90
40374;DHT22;26079;45.958;12.492;2023-05-16T04:24:39;14.40;99.90
40374;DHT22;26079;45.958;12.492;2023-05-16T04:27:05;14.40;99.90
40374;DHT22;26079;45.958;12.492;2023-05-16T04:29:33;14.40;99.90
40374;DHT22;26079;45.958;12.492;2023-05-16T04:31:59;14.40;99.90
40374;DHT22;26079;45.958;12.492;2023-05-16T04:34:25;14.50;99.90
40374;DHT22;26079;45.958;12.492;2023-05-16T04:36:53;14.50;99.90
40374;DHT22;26079;45.958;12.492;2023-05-16T04:39:18;14.50;99.90
40374;DHT22;26079;45.958;12.492;2023-05-16T04:41:44;14.50;99.90
40374;DHT22;26079;45.958;12.492;2023-05-16T04:44:09;14.60;99.90
40374;DHT22;26079;45.958;12.492;2023-05-16T04:46:36;14.60;98.40
40374;DHT22;26079;45.958;12.492;2023-05-16T04:49:01;14.70;97.10
40374;DHT22;26079;45.958;12.492;2023-05-16T04:51:27;14.90;95.00
40374;DHT22;26079;45.958;12.492;2023-05-16T04:53:53;15.00;93.50
40374;DHT22;26079;45.958;12.492;2023-05-16T04:56:19;15.10;92.80
40374;DHT22;26079;45.958;12.492;2023-05-16T04:58:45;15.20;92.80
40374;DHT22;26079;45.958;12.492;2023-05-16T05:01:10;15.20;90.60
40374;DHT22;26079;45.958;12.492;2023-05-16T05:03:36;15.20;90.80
40374;DHT22;26079;45.958;12.492;2023-05-16T05:06:02;15.20;90.80
40374;DHT22;26079;45.958;12.492;2023-05-16T05:08:28;15.20;95.60
40374;DHT22;26079;45.958;12.492;2023-05-16T05:10:57;15.20;95.90
40374;DHT22;26079;45.958;12.492;2023-05-16T05:13:23;15.10;95.00
40374;DHT22;26079;45.958;12.492;2023-05-16T05:15:48;15.10;99.30
40374;DHT22;26079;45.958;12.492;2023-05-16T05:18:16;15.10;98.80
40374;DHT22;26079;45.958;12.492;2023-05-16T05:20:43;15.00;99.20
40374;DHT22;26079;45.958;12.492;2023-05-16T05:23:08;15.00;98.80
40374;DHT22;26079;45.958;12.492;2023-05-16T05:25:35;15.00;93.70
40374;DHT22;26079;45.958;12.492;2023-05-16T05:28:01;15.10;94.10
40374;DHT22;26079;45.958;12.492;2023-05-16T05:30:26;15.20;94.10
40374;DHT22;26079;45.958;12.492;2023-05-16T05:32:52;15.30;93.30
40374;DHT22;26079;45.958;12.492;2023-05-16T05:35:19;15.40;92.60
40374;DHT22;26079;45.958;12.492;2023-05-16T05:37:45;15.40;91.80
40374;DHT22;26079;45.958;12.492;2023-05-16T05:40:11;15.40;92.30
40374;DHT22;26079;45.958;12.492;2023-05-16T05:42:37;15.50;92.70
40374;DHT22;26079;45.958;12.492;2023-05-16T05:45:03;15.50;91.20
40374;DHT22;26079;45.958;12.492;2023-05-16T05:47:29;15.60;90.60
40374;DHT22;26079;45.958;12.492;2023-05-16T05:49:55;15.60;89.10
40374;DHT22;26079;45.958;12.492;2023-05-16T05:52:21;15.60;89.50
40374;DHT22;26079;45.958;12.492;2023-05-16T05:54:47;15.70;89.50
40374;DHT22;26079;45.958;12.492;2023-05-16T05:57:13;15.70;89.80
40374;DHT22;26079;45.958;12.492;2023-05-16T05:59:38;15.70;90.40
40374;DHT22;26079;45.958;12.492;2023-05-16T06:02:04;15.70;89.50
40374;DHT22;26079;45.958;12.492;2023-05-16T06:04:30;15.70;90.80
40374;DHT22;26079;45.958;12.492;2023-05-16T06:06:56;15.60;90.20
40374;DHT22;26079;45.958;12.492;2023-05-16T06:09:22;15.70;89.50
40374;DHT22;26079;45.958;12.492;2023-05-16T06:11:48;15.70;89.70
40374;DHT22;26079;45.958;12.492;2023-05-16T06:14:14;15.70;90.30
40374;DHT22;26079;45.958;12.492;2023-05-16T06:16:40;15.70;90.10
40374;DHT22;26079;45.958;12.492;2023-05-16T06:19:06;15.60;89.90
40374;DHT22;26079;45.958;12.492;2023-05-16T06:21:32;15.60;92.70
40374;DHT22;26079;45.958;12.492;2023-05-16T06:23:58;15.40;91.60
40374;DHT22;26079;45.958;12.492;2023-05-16T06:26:23;15.30;92.50
40374;DHT22;26079;45.958;12.492;2023-05-16T06:28:49;15.20;94.60
40374;DHT22;26079;45.958;12.492;2023-05-16T06:31:15;15.10;96.00
40374;DHT22;26079;45.958;12.492;2023-05-16T06:33:40;15.10;99.20
40374;DHT22;26079;45.958;12.492;2023-05-16T06:36:06;14.90;99.90
40374;DHT22;26079;45.958;12.492;2023-05-16T06:38:32;14.80;99.90
40374;DHT22;26079;45.958;12.492;2023-05-16T06:41:01;14.70;99.90
40374;DHT22;26079;45.958;12.492;2023-05-16T06:43:26;14.60;99.90
40374;DHT22;26079;45.958;12.492;2023-05-16T06:45:52;14.70;98.10
40374;DHT22;26079;45.958;12.492;2023-05-16T06:48:17;14.70;98.80
40374;DHT22;26079;45.958;12.492;2023-05-16T06:50:50;14.70;99.90
40374;DHT22;26079;45.958;12.492;2023-05-16T06:53:17;14.70;99.90
40374;DHT22;26079;45.958;12.492;2023-05-16T06:55:42;14.70;99.90
40374;DHT22;26079;45.958;12.492;2023-05-16T06:58:09;14.70;99.90
40374;DHT22;26079;45.958;12.492;2023-05-16T07:00:34;14.80;99.90
40374;DHT22;26079;45.958;12.492;2023-05-16T07:03:01;14.90;96.90
40374;DHT22;26079;45.958;12.492;2023-05-16T07:05:28;15.10;96.30
40374;DHT22;26079;45.958;12.492;2023-05-16T07:07:54;15.20;99.90
40374;DHT22;26079;45.958;12.492;2023-05-16T07:10:20;15.20;97.70
40374;DHT22;26079;45.958;12.492;2023-05-16T07:12:46;15.40;95.30
40374;DHT22;26079;45.958;12.492;2023-05-16T07:15:12;15.40;93.90
40374;DHT22;26079;45.958;12.492;2023-05-16T07:17:38;15.50;95.40
40374;DHT22;26079;45.958;12.492;2023-05-16T07:20:05;15.50;97.80
40374;DHT22;26079;45.958;12.492;2023-05-16T07:22:31;15.60;99.90
40374;DHT22;26079;45.958;12.492;2023-05-16T07:24:57;15.70;99.90
40374;DHT22;26079;45.958;12.492;2023-05-16T07:27:25;15.70;99.90
40374;DHT22;26079;45.958;12.492;2023-05-16T07:29:51;15.80;99.90
40374;DHT22;26079;45.958;12.492;2023-05-16T07:32:17;16.00;99.90
40374;DHT22;26079;45.958;12.492;2023-05-16T07:34:42;16.30;99.40
40374;DHT22;26079;45.958;12.492;2023-05-16T07:37:08;16.50;98.30
40374;DHT22;26079;45.958;12.492;2023-05-16T07:39:38;16.90;99.00
40374;DHT22;26079;45.958;12.492;2023-05-16T07:42:06;17.20;98.40
40374;DHT22;26079;45.958;12.492;2023-05-16T07:44:32;17.30;96.10
40374;DHT22;26079;45.958;12.492;2023-05-16T07:46:57;17.30;93.50
40374;DHT22;26079;45.958;12.492;2023-05-16T07:49:23;17.20;94.20
40374;DHT22;26079;45.958;12.492;2023-05-16T07:51:48;17.00;95.40
40374;DHT22;26079;45.958;12.492;2023-05-16T07:54:14;16.90;96.60
40374;DHT22;26079;45.958;12.492;2023-05-16T07:56:40;16.80;95.60
40374;DHT22;26079;45.958;12.492;2023-05-16T07:59:06;16.80;95.10
40374;DHT22;26079;45.958;12.492;2023-05-16T08:01:32;16.80;95.40
40374;DHT22;26079;45.958;12.492;2023-05-16T08:03:58;16.80;96.00
40374;DHT22;26079;45.958;12.492;2023-05-16T08:06:23;16.90;94.80
40374;DHT22;26079;45.958;12.492;2023-05-16T08:08:49;16.90;95.00
40374;DHT22;26079;45.958;12.492;2023-05-16T08:11:15;17.00;93.70
40374;DHT22;26079;45.958;12.492;2023-05-16T08:13:41;17.00;96.60
40374;DHT22;26079;45.958;12.492;2023-05-16T08:16:06;17.00;96.10
40374;DHT22;26079;45.958;12.492;2023-05-16T08:18:32;17.10;94.40
40374;DHT22;26079;45.958;12.492;2023-05-16T08:20:57;17.20;93.70
40374;DHT22;26079;45.958;12.492;2023-05-16T08:23:23;17.20;96.20
40374;DHT22;26079;45.958;12.492;2023-05-16T08:25:49;17.20;93.00
40374;DHT22;26079;45.958;12.492;2023-05-16T08:28:14;17.10;93.80
40374;DHT22;26079;45.958;12.492;2023-05-16T08:30:41;17.10;96.10
40374;DHT22;26079;45.958;12.492;2023-05-16T08:33:06;17.10;95.60
40374;DHT22;26079;45.958;12.492;2023-05-16T08:35:32;17.20;95.30
40374;DHT22;26079;45.958;12.492;2023-05-16T08:38:00;17.10;96.00
40374;DHT22;26079;45.958;12.492;2023-05-16T08:40:27;17.20;94.00
40374;DHT22;26079;45.958;12.492;2023-05-16T08:42:53;17.30;95.30
40374;DHT22;26079;45.958;12.492;2023-05-16T08:45:20;17.30;92.70
40374;DHT22;26079;45.958;12.492;2023-05-16T08:47:49;17.40;93.50
40374;DHT22;26079;45.958;12.492;2023-05-16T08:50:15;17.50;94.00
40374;DHT22;26079;45.958;12.492;2023-05-16T08:52:43;17.70;93.10
40374;DHT22;26079;45.958;12.492;2023-05-16T08:55:08;17.80;92.30
40374;DHT22;26079;45.958;12.492;2023-05-16T08:57:36;17.90;90.80
40374;DHT22;26079;45.958;12.492;2023-05-16T09:00:02;18.10;91.10
40374;DHT22;26079;45.958;12.492;2023-05-16T09:02:31;18.30;90.30
40374;DHT22;26079;45.958;12.492;2023-05-16T09:04:57;18.40;83.20
40374;DHT22;26079;45.958;12.492;2023-05-16T09:07:25;18.50;79.70
40374;DHT22;26079;45.958;12.492;2023-05-16T09:09:50;18.60;77.30
40374;DHT22;26079;45.958;12.492;2023-05-16T09:12:16;18.60;75.70
40374;DHT22;26079;45.958;12.492;2023-05-16T09:14:42;18.60;80.00
40374;DHT22;26079;45.958;12.492;2023-05-16T09:17:08;18.50;76.50
40374;DHT22;26079;45.958;12.492;2023-05-16T09:19:41;18.50;74.90
40374;DHT22;26079;45.958;12.492;2023-05-16T09:22:11;18.70;72.90
40374;DHT22;26079;45.958;12.492;2023-05-16T09:24:42;18.70;72.80
40374;DHT22;26079;45.958;12.492;2023-05-16T09:27:12;18.80;76.60
40374;DHT22;26079;45.958;12.492;2023-05-16T09:29:42;18.70;74.80
40374;DHT22;26079;45.958;12.492;2023-05-16T09:32:12;18.80;74.50
40374;DHT22;26079;45.958;12.492;2023-05-16T09:34:46;18.90;75.00
40374;DHT22;26079;45.958;12.492;2023-05-16T09:37:14;19.00;75.40
40374;DHT22;26079;45.958;12.492;2023-05-16T09:39:50;19.20;74.50
40374;DHT22;26079;45.958;12.492;2023-05-16T09:42:17;19.40;71.30
40374;DHT22;26079;45.958;12.492;2023-05-16T09:44:51;19.50;71.40
40374;DHT22;26079;45.958;12.492;2023-05-16T09:47:18;19.60;72.10
40374;DHT22;26079;45.958;12.492;2023-05-16T09:49:45;19.50;70.30
40374;DHT22;26079;45.958;12.492;2023-05-16T09:52:12;19.60;71.60
40374;DHT22;26079;45.958;12.492;2023-05-16T09:54:38;19.60;71.00
40374;DHT22;26079;45.958;12.492;2023-05-16T09:57:04;19.70;70.90
40374;DHT22;26079;45.958;12.492;2023-05-16T09:59:34;19.70;70.90
40374;DHT22;26079;45.958;12.492;2023-05-16T10:02:00;19.80;68.60
40374;DHT22;26079;45.958;12.492;2023-05-16T10:04:27;19.90;67.60
40374;DHT22;26079;45.958;12.492;2023-05-16T10:06:54;19.80;68.40
40374;DHT22;26079;45.958;12.492;2023-05-16T10:09:23;19.80;68.40
40374;DHT22;26079;45.958;12.492;2023-05-16T10:11:50;19.80;67.90
40374;DHT22;26079;45.958;12.492;2023-05-16T10:14:17;19.80;68.30
40374;DHT22;26079;45.958;12.492;2023-05-16T10:16:46;19.80;66.60
40374;DHT22;26079;45.958;12.492;2023-05-16T10:19:12;19.80;66.90
40374;DHT22;26079;45.958;12.492;2023-05-16T10:21:39;19.90;66.90
40374;DHT22;26079;45.958;12.492;2023-05-16T10:24:10;19.90;68.20
40374;DHT22;26079;45.958;12.492;2023-05-16T10:26:38;19.90;67.10
40374;DHT22;26079;45.958;12.492;2023-05-16T10:29:03;19.90;67.30
40374;DHT22;26079;45.958;12.492;2023-05-16T10:31:30;19.90;69.50
40374;DHT22;26079;45.958;12.492;2023-05-16T10:33:59;19.80;68.60
40374;DHT22;26079;45.958;12.492;2023-05-16T10:36:25;19.90;69.40
40374;DHT22;26079;45.958;12.492;2023-05-16T10:38:51;19.90;68.20
40374;DHT22;26079;45.958;12.492;2023-05-16T10:41:18;20.00;71.40
40374;DHT22;26079;45.958;12.492;2023-05-16T10:43:45;20.00;71.20
40374;DHT22;26079;45.958;12.492;2023-05-16T10:46:22;20.10;73.20
40374;DHT22;26079;45.958;12.492;2023-05-16T10:48:48;20.10;68.70
40374;DHT22;26079;45.958;12.492;2023-05-16T10:53:53;20.00;70.80
40374;DHT22;26079;45.958;12.492;2023-05-16T10:56:26;19.90;71.40
40374;DHT22;26079;45.958;12.492;2023-05-16T10:58:53;19.90;72.90
40374;DHT22;26079;45.958;12.492;2023-05-16T11:01:41;19.80;74.40
40374;DHT22;26079;45.958;12.492;2023-05-16T11:04:09;19.70;71.00
40374;DHT22;26079;45.958;12.492;2023-05-16T11:16:53;19.40;75.30
40374;DHT22;26079;45.958;12.492;2023-05-16T11:24:37;19.40;77.70
40374;DHT22;26079;45.958;12.492;2023-05-16T11:27:04;19.30;79.70
40374;DHT22;26079;45.958;12.492;2023-05-16T11:29:34;19.20;79.30
40374;DHT22;26079;45.958;12.492;2023-05-16T11:32:03;19.10;80.80
40374;DHT22;26079;45.958;12.492;2023-05-16T11:34:29;19.10;83.70
40374;DHT22;26079;45.958;12.492;2023-05-16T11:36:55;19.10;85.80
40374;DHT22;26079;45.958;12.492;2023-05-16T11:39:21;19.00;86.10
40374;DHT22;26079;45.958;12.492;2023-05-16T11:41:52;18.90;87.40
40374;DHT22;26079;45.958;12.492;2023-05-16T11:44:18;18.70;85.50
40374;DHT22;26079;45.958;12.492;2023-05-16T11:46:44;18.60;86.00
40374;DHT22;26079;45.958;12.492;2023-05-16T11:49:10;18.50;86.90
40374;DHT22;26079;45.958;12.492;2023-05-16T11:51:38;18.60;85.60
40374;DHT22;26079;45.958;12.492;2023-05-16T11:54:04;18.90;76.20
40374;DHT22;26079;45.958;12.492;2023-05-16T11:56:30;19.20;74.40
40374;DHT22;26079;45.958;12.492;2023-05-16T11:59:00;19.60;73.00
40374;DHT22;26079;45.958;12.492;2023-05-16T12:01:34;20.00;73.30
40374;DHT22;26079;45.958;12.492;2023-05-16T12:04:00;20.30;71.80
40374;DHT22;26079;45.958;12.492;2023-05-16T12:06:26;20.50;71.20
40374;DHT22;26079;45.958;12.492;2023-05-16T12:08:51;20.70;67.40
40374;DHT22;26079;45.958;12.492;2023-05-16T12:11:17;20.90;67.40
40374;DHT22;26079;45.958;12.492;2023-05-16T12:13:43;21.00;65.20
40374;DHT22;26079;45.958;12.492;2023-05-16T12:16:11;21.10;65.50
40374;DHT22;26079;45.958;12.492;2023-05-16T12:18:37;21.30;65.10
40374;DHT22;26079;45.958;12.492;2023-05-16T12:21:04;21.40;65.00
40374;DHT22;26079;45.958;12.492;2023-05-16T12:23:32;21.60;63.60
40374;DHT22;26079;45.958;12.492;2023-05-16T12:25:58;21.60;62.60
40374;DHT22;26079;45.958;12.492;2023-05-16T12:28:30;21.60;61.80
40374;DHT22;26079;45.958;12.492;2023-05-16T12:30:57;21.60;63.40
40374;DHT22;26079;45.958;12.492;2023-05-16T12:33:23;21.60;63.50
40374;DHT22;26079;45.958;12.492;2023-05-16T12:35:49;21.70;64.20
40374;DHT22;26079;45.958;12.492;2023-05-16T12:38:18;21.80;63.20
40374;DHT22;26079;45.958;12.492;2023-05-16T12:40:45;21.90;61.70
40374;DHT22;26079;45.958;12.492;2023-05-16T12:43:15;21.80;62.40
40374;DHT22;26079;45.958;12.492;2023-05-16T12:45:41;21.60;62.50
40374;DHT22;26079;45.958;12.492;2023-05-16T12:48:13;21.40;62.50
40374;DHT22;26079;45.958;12.492;2023-05-16T12:50:39;21.30;63.00
40374;DHT22;26079;45.958;12.492;2023-05-16T12:53:10;21.00;65.50
40374;DHT22;26079;45.958;12.492;2023-05-16T12:55:37;20.80;65.60
40374;DHT22;26079;45.958;12.492;2023-05-16T12:58:02;20.50;66.70
40374;DHT22;26079;45.958;12.492;2023-05-16T13:00:28;20.20;66.50
40374;DHT22;26079;45.958;12.492;2023-05-16T13:02:54;19.90;67.00
40374;DHT22;26079;45.958;12.492;2023-05-16T13:05:20;19.70;67.80
40374;DHT22;26079;45.958;12.492;2023-05-16T13:07:48;19.50;68.70
40374;DHT22;26079;45.958;12.492;2023-05-16T13:10:16;19.50;68.30
40374;DHT22;26079;45.958;12.492;2023-05-16T13:12:42;19.30;67.50
40374;DHT22;26079;45.958;12.492;2023-05-16T13:15:09;19.20;67.90
40374;DHT22;26079;45.958;12.492;2023-05-16T13:17:40;19.10;67.40
40374;DHT22;26079;45.958;12.492;2023-05-16T13:20:07;19.10;68.40
40374;DHT22;26079;45.958;12.492;2023-05-16T13:22:34;19.00;68.10
40374;DHT22;26079;45.958;12.492;2023-05-16T13:25:01;18.90;70.10
40374;DHT22;26079;45.958;12.492;2023-05-16T13:27:29;18.80;70.40
40374;DHT22;26079;45.958;12.492;2023-05-16T13:29:54;18.50;74.10
40374;DHT22;26079;45.958;12.492;2023-05-16T13:32:20;18.00;75.40
40374;DHT22;26079;45.958;12.492;2023-05-16T13:34:46;17.50;76.50
40374;DHT22;26079;45.958;12.492;2023-05-16T13:37:11;17.30;81.00
40374;DHT22;26079;45.958;12.492;2023-05-16T13:39:37;17.10;79.60
40374;DHT22;26079;45.958;12.492;2023-05-16T13:42:03;16.90;81.70
40374;DHT22;26079;45.958;12.492;2023-05-16T13:44:29;16.80;83.20
40374;DHT22;26079;45.958;12.492;2023-05-16T13:46:55;16.60;83.70
40374;DHT22;26079;45.958;12.492;2023-05-16T13:49:22;16.60;85.10
40374;DHT22;26079;45.958;12.492;2023-05-16T13:51:48;16.50;84.10
40374;DHT22;26079;45.958;12.492;2023-05-16T13:54:13;16.50;86.20
40374;DHT22;26079;45.958;12.492;2023-05-16T13:56:39;16.40;85.40
40374;DHT22;26079;45.958;12.492;2023-05-16T13:59:05;16.30;85.30
40374;DHT22;26079;45.958;12.492;2023-05-16T14:01:31;16.30;85.10
40374;DHT22;26079;45.958;12.492;2023-05-16T14:03:56;16.30;87.10
40374;DHT22;26079;45.958;12.492;2023-05-16T14:06:22;16.20;87.70
40374;DHT22;26079;45.958;12.492;2023-05-16T14:08:48;16.30;85.50
40374;DHT22;26079;45.958;12.492;2023-05-16T14:11:14;16.40;87.10
40374;DHT22;26079;45.958;12.492;2023-05-16T14:13:39;16.40;84.70
40374;DHT22;26079;45.958;12.492;2023-05-16T14:16:05;16.50;84.00
40374;DHT22;26079;45.958;12.492;2023-05-16T14:18:32;16.60;85.20
40374;DHT22;26079;45.958;12.492;2023-05-16T14:20:58;16.50;86.10
40374;DHT22;26079;45.958;12.492;2023-05-16T14:23:23;16.50;84.80
40374;DHT22;26079;45.958;12.492;2023-05-16T14:25:49;16.40;85.70
40374;DHT22;26079;45.958;12.492;2023-05-16T14:28:15;16.30;88.40
40374;DHT22;26079;45.958;12.492;2023-05-16T14:30:41;16.30;85.90
40374;DHT22;26079;45.958;12.492;2023-05-16T14:33:09;16.20;86.30
40374;DHT22;26079;45.958;12.492;2023-05-16T14:35:35;16.20;86.50
40374;DHT22;26079;45.958;12.492;2023-05-16T14:38:06;16.20;86.30
40374;DHT22;26079;45.958;12.492;2023-05-16T14:40:32;16.20;85.20
40374;DHT22;26079;45.958;12.492;2023-05-16T14:42:58;16.20;85.40
40374;DHT22;26079;45.958;12.492;2023-05-16T14:45:24;16.20;85.80
40374;DHT22;26079;45.958;12.492;2023-05-16T14:47:50;16.20;85.00
40374;DHT22;26079;45.958;12.492;2023-05-16T14:50:17;16.20;86.00
40374;DHT22;26079;45.958;12.492;2023-05-16T14:52:42;16.20;85.70
40374;DHT22;26079;45.958;12.492;2023-05-16T14:55:09;16.10;86.20
40374;DHT22;26079;45.958;12.492;2023-05-16T14:57:38;16.10;85.90
40374;DHT22;26079;45.958;12.492;2023-05-16T15:00:04;16.00;88.50
40374;DHT22;26079;45.958;12.492;2023-05-16T15:02:31;15.90;87.30
40374;DHT22;26079;45.958;12.492;2023-05-16T15:04:57;15.90;87.20
40374;DHT22;26079;45.958;12.492;2023-05-16T15:07:24;15.90;86.40
40374;DHT22;26079;45.958;12.492;2023-05-16T15:09:49;15.90;87.70
40374;DHT22;26079;45.958;12.492;2023-05-16T15:12:15;15.90;87.00
40374;DHT22;26079;45.958;12.492;2023-05-16T15:14:41;16.00;86.90
40374;DHT22;26079;45.958;12.492;2023-05-16T15:17:07;15.90;87.10
40374;DHT22;26079;45.958;12.492;2023-05-16T15:19:32;15.90;87.00
40374;DHT22;26079;45.958;12.492;2023-05-16T15:21:58;16.00;87.80
40374;DHT22;26079;45.958;12.492;2023-05-16T15:24:24;16.10;87.00
40374;DHT22;26079;45.958;12.492;2023-05-16T15:26:50;16.20;84.80
40374;DHT22;26079;45.958;12.492;2023-05-16T15:29:16;16.40;83.50
40374;DHT22;26079;45.958;12.492;2023-05-16T15:31:43;16.50;83.60
40374;DHT22;26079;45.958;12.492;2023-05-16T15:34:09;16.50;85.20
40374;DHT22;26079;45.958;12.492;2023-05-16T15:36:36;16.50;84.00
40374;DHT22;26079;45.958;12.492;2023-05-16T15:39:02;16.60;83.20
40374;DHT22;26079;45.958;12.492;2023-05-16T15:41:27;16.60;83.30
40374;DHT22;26079;45.958;12.492;2023-05-16T15:43:53;16.60;82.30